Time;durP1;ratioP1;P1;durP2;ratioP2;P2;SDS_P1;SDS_P2;PMS_P1;PMS_P2;Temp;Humidity;BMP_temperature;BMP_pressure;BME280_temperature;BME280_humidity;BME280_pressure;Samples;Min_cycle;Max_cycle;Signal;HPM_P1;HPM_P2
2022/06/01 05:47:48;;;;;;;7.05;6.35;;;;;;;;;;6192513;22;20150;-79
2022/06/01 05:50:14;;;;;;;7.18;6.57;;;;;;;;;;6289780;22;20016;-80
2022/06/01 05:52:39;;;;;;;8.23;7.07;;;;;;;;;;6277493;22;20480;-80
2022/06/01 05:55:10;;;;;;;6.78;6.18;;;;;;;;;;6277778;22;20045;-82
2022/06/01 05:57:36;;;;;;;7.20;6.20;;;;;;;;;;6277658;22;20003;-79
2022/06/01 06:00:05;;;;;;;11.25;6.70;;;;;;;;;;6277345;22;20003;-83
2022/06/01 06:02:30;;;;;;;8.38;6.30;;;;;;;;;;6277388;22;20415;-82
2022/06/01 06:04:56;;;;;;;7.47;6.70;;;;;;;;;;6277413;22;20003;-81
2022/06/01 09:47:21;;;;;;;14.02;9.93;;;;;;;;;;6280017;22;20038;-81
2022/06/01 09:49:52;;;;;;;10.52;9.43;;;;;;;;;;6308870;22;20022;-79
2022/06/01 09:52:48;;;;;;;10.10;9.18;;;;;;;;;;6295702;22;20008;-80
2022/06/01 09:55:21;;;;;;;9.07;7.25;;;;;;;;;;6245936;22;20012;-80
2022/06/01 09:58:08;;;;;;;12.85;11.50;;;;;;;;;;6277865;22;20000;-78
2022/06/01 10:06:25;;;;;;;12.60;10.68;;;;;;;;;;6277964;22;20375;-86
2022/06/01 10:09:19;;;;;;;12.18;10.93;;;;;;;;;;6278351;22;20012;-83
2022/06/01 10:11:48;;;;;;;12.93;11.05;;;;;;;;;;6267953;22;20307;-85
2022/06/01 10:14:21;;;;;;;;;;;;;;;;;;6278370;22;20074;-85
2022/06/01 10:17:17;;;;;;;14.15;12.50;;;;;;;;;;6278647;22;19910;-86
2022/06/01 10:19:53;;;;;;;15.32;13.73;;;;;;;;;;6250449;22;20374;-84
2022/06/01 10:22:36;;;;;;;12.95;11.30;;;;;;;;;;6278645;22;20007;-82
2022/06/01 10:25:05;;;;;;;12.27;11.07;;;;;;;;;;6278007;22;20053;-82
2022/06/01 10:27:38;;;;;;;12.52;11.25;;;;;;;;;;6277708;22;20007;-88
2022/06/01 10:30:18;;;;;;;12.60;10.48;;;;;;;;;;6278116;22;20006;-86
2022/06/01 10:32:55;;;;;;;13.48;11.57;;;;;;;;;;6277323;22;20484;-80
2022/06/01 10:35:39;;;;;;;12.77;11.55;;;;;;;;;;6277230;22;20049;-81
2022/06/01 10:38:14;;;;;;;13.82;12.40;;;;;;;;;;6277421;22;20058;-83
2022/06/01 10:40:49;;;;;;;14.27;12.88;;;;;;;;;;6277092;22;20003;-81
2022/06/01 10:43:31;;;;;;;13.60;11.63;;;;;;;;;;6277114;22;20002;-79
2022/06/01 10:46:16;;;;;;;12.80;11.23;;;;;;;;;;6277718;22;20039;-83
2022/06/01 10:48:55;;;;;;;12.38;11.13;;;;;;;;;;6279291;22;20007;-91
2022/06/01 10:51:28;;;;;;;14.43;12.30;;;;;;;;;;6253124;22;20007;-95
2022/06/01 10:54:21;;;;;;;12.18;11.07;;;;;;;;;;6279936;22;20008;-90
2022/06/01 10:56:47;;;;;;;14.73;12.77;;;;;;;;;;6277386;22;20000;-82
2022/06/01 10:59:16;;;;;;;14.93;13.43;;;;;;;;;;6276997;22;20011;-89
2022/06/01 11:01:59;;;;;;;12.13;10.93;;;;;;;;;;6277107;22;20026;-87
2022/06/01 11:04:37;;;;;;;12.90;11.38;;;;;;;;;;6277310;22;20000;-86
2022/06/01 11:07:22;;;;;;;21.67;15.93;;;;;;;;;;6277079;22;20000;-86
2022/06/01 11:09:55;;;;;;;16.67;14.98;;;;;;;;;;6276943;22;20010;-86
2022/06/01 11:12:38;;;;;;;16.02;13.82;;;;;;;;;;6276882;22;20018;-86
2022/06/01 11:15:24;;;;;;;21.98;15.88;;;;;;;;;;6277091;22;20074;-86
2022/06/01 11:18:01;;;;;;;11.40;10.25;;;;;;;;;;6250286;22;20011;-86
2022/06/01 11:20:51;;;;;;;14.43;12.85;;;;;;;;;;6277042;22;20083;-87
2022/06/01 11:23:35;;;;;;;19.42;17.33;;;;;;;;;;6279799;22;20011;-91
2022/06/01 11:26:01;;;;;;;17.25;15.32;;;;;;;;;;6253094;22;20062;-91
2022/06/01 11:28:38;;;;;;;24.08;20.02;;;;;;;;;;6279923;22;20004;-92
2022/06/01 11:31:25;;;;;;;21.65;19.35;;;;;;;;;;6280162;22;19995;-89
2022/06/01 11:33:50;;;;;;;22.75;20.45;;;;;;;;;;6277591;22;20062;-93
2022/06/01 17:09:23;;;;;;;18.90;16.30;;;;;;;;;;6249439;22;20042;-77
2022/06/01 17:11:48;;;;;;;14.73;12.35;;;;;;;;;;6308142;22;20307;-80
2022/06/01 17:14:14;;;;;;;19.48;14.43;;;;;;;;;;6309059;22;20007;-76
2022/06/01 17:16:41;;;;;;;15.88;10.10;;;;;;;;;;6302730;22;20007;-86
2022/06/01 17:19:09;;;;;;;14.65;10.18;;;;;;;;;;6250822;22;20422;-86
2022/06/01 17:21:41;;;;;;;14.35;12.82;;;;;;;;;;6278155;22;20030;-77
2022/06/01 17:24:07;;;;;;;17.02;13.82;;;;;;;;;;6278061;22;20379;-80
2022/06/01 17:26:34;;;;;;;17.13;14.88;;;;;;;;;;6277772;22;20007;-73
2022/06/01 17:29:00;;;;;;;17.42;13.35;;;;;;;;;;6277814;22;20006;-76
2022/06/01 17:31:26;;;;;;;20.23;17.90;;;;;;;;;;6278148;22;20026;-76
2022/06/01 17:33:52;;;;;;;25.10;18.42;;;;;;;;;;6251328;22;20012;-77
2022/06/01 17:36:18;;;;;;;18.83;16.92;;;;;;;;;;6277903;22;20576;-78
2022/06/01 17:38:43;;;;;;;20.17;15.85;;;;;;;;;;6278316;22;20004;-77
2022/06/01 17:41:09;;;;;;;19.00;14.98;;;;;;;;;;6277459;22;20031;-78
2022/06/01 17:43:34;;;;;;;17.77;15.48;;;;;;;;;;6277824;22;20010;-77
2022/06/01 17:46:00;;;;;;;15.73;12.55;;;;;;;;;;6277929;22;20457;-78
2022/06/01 17:48:30;;;;;;;14.93;11.27;;;;;;;;;;6277543;22;20335;-77
2022/06/01 17:50:56;;;;;;;13.05;10.30;;;;;;;;;;6277654;22;19999;-79
2022/06/01 17:53:23;;;;;;;12.93;9.98;;;;;;;;;;6277513;22;20489;-78
2022/06/01 17:55:49;;;;;;;11.95;10.48;;;;;;;;;;6277404;22;20000;-78
2022/06/01 17:58:17;;;;;;;12.05;10.77;;;;;;;;;;6250553;22;20004;-78
2022/06/01 18:00:43;;;;;;;10.10;9.05;;;;;;;;;;6277639;22;20003;-78
2022/06/01 18:03:10;;;;;;;12.85;10.05;;;;;;;;;;6276949;22;20039;-79
2022/06/01 18:05:37;;;;;;;9.57;8.68;;;;;;;;;;6277367;22;20411;-75
2022/06/01 18:08:17;;;;;;;10.57;9.48;;;;;;;;;;6277252;22;20014;-78
2022/06/01 18:10:44;;;;;;;11.40;10.23;;;;;;;;;;6276789;22;20443;-77
2022/06/01 18:13:11;;;;;;;11.00;10.00;;;;;;;;;;6277125;22;20007;-78
2022/06/01 18:15:37;;;;;;;12.45;11.07;;;;;;;;;;6277362;22;20330;-78
2022/06/01 18:18:03;;;;;;;12.70;11.38;;;;;;;;;;6277344;22;20022;-78
2022/06/01 18:20:37;;;;;;;14.35;9.55;;;;;;;;;;6277211;22;20447;-78
2022/06/01 18:23:07;;;;;;;10.77;9.63;;;;;;;;;;6277073;22;20411;-77
2022/06/01 18:25:33;;;;;;;;;;;;;;;;;;6278205;22;20075;-75
2022/06/01 18:27:59;;;;;;;10.75;9.60;;;;;;;;;;6277451;22;19907;-80
2022/06/01 18:30:26;;;;;;;12.18;10.75;;;;;;;;;;6250479;22;20003;-77
2022/06/01 18:32:55;;;;;;;13.95;9.95;;;;;;;;;;6277307;22;20334;-74
2022/06/01 18:35:20;;;;;;;12.00;10.75;;;;;;;;;;6277857;22;20000;-77
2022/06/01 18:37:46;;;;;;;12.35;11.02;;;;;;;;;;6277228;22;20007;-77
2022/06/01 18:40:12;;;;;;;11.40;10.35;;;;;;;;;;6276705;22;20312;-77
2022/06/01 18:42:44;;;;;;;14.10;11.70;;;;;;;;;;6276983;22;20023;-79
2022/06/01 18:45:16;;;;;;;11.30;9.88;;;;;;;;;;6277259;22;20000;-77
2022/06/01 18:47:41;;;;;;;11.73;10.32;;;;;;;;;;6276523;22;20511;-77
2022/06/01 18:50:08;;;;;;;12.13;10.93;;;;;;;;;;6276840;22;20042;-78
2022/06/01 18:52:34;;;;;;;12.52;10.85;;;;;;;;;;6276795;22;20004;-77
2022/06/01 18:55:01;;;;;;;14.18;11.05;;;;;;;;;;6276730;22;20331;-78
2022/06/01 18:57:26;;;;;;;15.13;11.07;;;;;;;;;;6276994;22;20000;-78
2022/06/01 19:02:36;;;;;;;14.13;10.85;;;;;;;;;;6277177;22;20046;-80
2022/06/01 19:05:01;;;;;;;11.40;10.40;;;;;;;;;;6276982;22;20000;-81
2022/06/01 19:07:27;;;;;;;11.57;10.38;;;;;;;;;;6277170;22;20006;-80
2022/06/01 19:09:53;;;;;;;12.82;11.52;;;;;;;;;;6276817;22;20011;-80
2022/06/01 19:12:19;;;;;;;11.95;10.70;;;;;;;;;;6276482;22;20010;-78
2022/06/01 19:14:45;;;;;;;13.75;12.30;;;;;;;;;;6276531;22;20003;-75
2022/06/01 19:17:14;;;;;;;14.50;12.23;;;;;;;;;;6279860;22;20335;-74
2022/06/01 19:19:45;;;;;;;12.93;11.63;;;;;;;;;;6280278;22;20004;-77
2022/06/01 19:22:22;;;;;;;16.70;13.65;;;;;;;;;;6280282;22;20311;-75
2022/06/01 19:24:49;;;;;;;13.40;11.50;;;;;;;;;;6279941;22;20011;-76
2022/06/01 19:27:19;;;;;;;13.38;11.45;;;;;;;;;;6280123;22;20365;-75
2022/06/01 19:29:47;;;;;;;12.48;11.23;;;;;;;;;;6280326;22;20004;-75
2022/06/01 19:32:13;;;;;;;13.90;12.45;;;;;;;;;;6280146;22;19999;-78
2022/06/01 19:34:38;;;;;;;13.82;12.30;;;;;;;;;;6280025;22;20000;-77
2022/06/01 19:45:34;;;;;;;12.48;11.18;;;;;;;;;;6280521;22;20053;-77
2022/06/01 19:48:00;;;;;;;12.65;11.32;;;;;;;;;;6280266;22;20471;-77
2022/06/01 19:50:27;;;;;;;12.93;11.57;;;;;;;;;;6280500;22;20031;-77
2022/06/01 19:52:53;;;;;;;14.10;11.23;;;;;;;;;;6280404;22;20012;-78
2022/06/01 19:55:19;;;;;;;14.38;10.98;;;;;;;;;;6280621;22;20011;-78
2022/06/01 19:57:45;;;;;;;12.55;11.18;;;;;;;;;;6280598;22;20078;-75
2022/06/01 20:00:11;;;;;;;13.88;12.13;;;;;;;;;;6280498;22;20054;-77
2022/06/01 20:02:37;;;;;;;16.60;12.98;;;;;;;;;;6280119;22;20011;-76
2022/06/01 20:05:04;;;;;;;15.55;12.25;;;;;;;;;;6280187;22;19996;-77
2022/06/01 20:07:31;;;;;;;14.88;12.75;;;;;;;;;;6280219;22;20004;-78
2022/06/01 20:09:57;;;;;;;16.42;13.02;;;;;;;;;;6280345;22;20322;-78
2022/06/01 20:15:06;;;;;;;14.40;11.27;;;;;;;;;;6280372;22;20331;-76
2022/06/01 20:17:32;;;;;;;13.98;12.57;;;;;;;;;;6280615;22;19996;-76
2022/06/01 20:19:58;;;;;;;15.82;14.13;;;;;;;;;;6280189;22;20445;-77
2022/06/01 20:22:24;;;;;;;12.98;11.80;;;;;;;;;;6280576;22;20006;-77
2022/06/01 20:24:53;;;;;;;12.73;10.68;;;;;;;;;;6280317;22;19999;-77
2022/06/01 20:27:19;;;;;;;14.50;12.23;;;;;;;;;;6278856;22;20019;-76
2022/06/01 20:29:45;;;;;;;15.82;13.35;;;;;;;;;;6278457;22;20034;-77
2022/06/01 20:32:10;;;;;;;14.18;12.13;;;;;;;;;;6279128;22;19999;-77
2022/06/01 20:34:36;;;;;;;13.35;10.30;;;;;;;;;;6278773;22;20003;-77
2022/06/01 20:37:02;;;;;;;12.27;10.93;;;;;;;;;;6278400;22;20027;-76
2022/06/01 20:39:30;;;;;;;14.40;12.68;;;;;;;;;;6278874;22;20445;-76
2022/06/01 20:41:55;;;;;;;12.75;11.45;;;;;;;;;;6278455;22;20419;-76
2022/06/01 20:44:21;;;;;;;13.32;11.48;;;;;;;;;;6278586;22;20007;-77
2022/06/01 20:46:46;;;;;;;12.23;11.02;;;;;;;;;;6278375;22;20078;-74
2022/06/01 20:49:13;;;;;;;12.23;10.38;;;;;;;;;;6278251;22;20000;-74
2022/06/01 20:51:39;;;;;;;11.23;10.13;;;;;;;;;;6278399;22;20003;-75
2022/06/01 20:54:05;;;;;;;13.30;11.07;;;;;;;;;;6278263;22;20326;-75
2022/06/01 20:56:31;;;;;;;12.13;10.27;;;;;;;;;;6278194;22;19999;-77
2022/06/01 20:58:57;;;;;;;13.60;11.63;;;;;;;;;;6278209;22;20503;-76
2022/06/01 21:01:23;;;;;;;13.55;11.52;;;;;;;;;;6278552;22;20019;-77
2022/06/01 21:03:50;;;;;;;12.88;11.63;;;;;;;;;;6277884;22;20034;-77
2022/06/01 21:06:17;;;;;;;14.68;13.07;;;;;;;;;;6278038;22;20003;-77
2022/06/01 21:08:43;;;;;;;13.20;11.90;;;;;;;;;;6278191;22;20071;-77
2022/06/01 21:11:08;;;;;;;13.40;12.00;;;;;;;;;;6278020;22;20446;-77
2022/06/01 21:13:34;;;;;;;16.67;14.70;;;;;;;;;;6277821;22;20007;-77
2022/06/01 21:16:00;;;;;;;16.13;13.18;;;;;;;;;;6278467;22;20414;-77
2022/06/01 21:18:26;;;;;;;15.25;12.88;;;;;;;;;;6278298;22;20031;-77
2022/06/01 21:20:52;;;;;;;13.55;11.52;;;;;;;;;;6278011;22;20430;-77
2022/06/01 21:23:18;;;;;;;13.63;11.57;;;;;;;;;;6277818;22;20000;-77
2022/06/01 21:25:44;;;;;;;13.02;11.82;;;;;;;;;;6278052;22;20000;-77
2022/06/01 21:28:09;;;;;;;12.85;11.55;;;;;;;;;;6277908;22;20066;-77
2022/06/01 21:30:35;;;;;;;12.48;11.27;;;;;;;;;;6278269;22;20141;-78
2022/06/01 21:33:00;;;;;;;14.07;12.00;;;;;;;;;;6278082;22;20300;-77
2022/06/01 21:35:28;;;;;;;13.57;10.70;;;;;;;;;;6277916;22;20411;-77
2022/06/01 21:37:54;;;;;;;13.00;11.68;;;;;;;;;;6250200;22;20011;-78
2022/06/01 21:40:21;;;;;;;13.23;11.75;;;;;;;;;;6277519;22;20034;-77
2022/06/01 21:42:46;;;;;;;12.45;11.18;;;;;;;;;;6277711;22;20032;-77
2022/06/01 21:45:13;;;;;;;11.82;10.73;;;;;;;;;;6277967;22;20027;-78
2022/06/01 21:47:40;;;;;;;14.18;10.95;;;;;;;;;;6277680;22;20004;-77
2022/06/01 21:50:08;;;;;;;12.18;10.93;;;;;;;;;;6277511;22;20022;-77
2022/06/01 21:52:38;;;;;;;14.15;12.75;;;;;;;;;;6277443;22;20010;-78
2022/06/01 21:55:05;;;;;;;13.70;12.20;;;;;;;;;;6277499;22;20027;-77
2022/06/01 21:57:31;;;;;;;12.30;11.20;;;;;;;;;;6277422;22;20430;-77
2022/06/01 21:59:57;;;;;;;11.75;10.55;;;;;;;;;;6277518;22;20079;-77
2022/06/01 22:02:22;;;;;;;13.32;11.98;;;;;;;;;;6278049;22;20366;-77
2022/06/01 22:04:48;;;;;;;12.98;11.45;;;;;;;;;;6277732;22;20008;-77
2022/06/01 22:07:13;;;;;;;12.90;11.60;;;;;;;;;;6277429;22;20004;-77
2022/06/01 22:09:39;;;;;;;12.77;11.50;;;;;;;;;;6277556;22;20003;-77
2022/06/01 22:12:16;;;;;;;12.30;11.05;;;;;;;;;;6277146;22;20079;-77
2022/06/01 22:14:49;;;;;;;11.70;10.50;;;;;;;;;;6277737;22;20004;-77
2022/06/01 22:17:18;;;;;;;12.35;11.05;;;;;;;;;;6277430;22;20375;-78
2022/06/01 22:19:44;;;;;;;12.57;11.32;;;;;;;;;;6277460;22;20070;-78
2022/06/01 22:22:11;;;;;;;12.40;11.10;;;;;;;;;;6276740;22;20419;-77
2022/06/01 22:24:37;;;;;;;13.90;11.10;;;;;;;;;;6277356;22;20004;-77
